createdAt,value
2018-01-10T00:00:38.394Z,57.00
2018-01-10T00:03:06.719Z,56.70
2018-01-10T00:05:34.986Z,56.20
2018-01-10T00:08:03.243Z,56.90
2018-01-10T00:10:31.497Z,57.10
2018-01-10T00:12:59.752Z,57.00
2018-01-10T00:15:28.006Z,57.00
2018-01-10T00:17:56.473Z,56.20
2018-01-10T00:20:24.699Z,57.00
2018-01-10T00:22:52.939Z,56.90
2018-01-10T00:25:21.240Z,57.00
2018-01-10T00:27:49.492Z,56.20
2018-01-10T00:30:17.790Z,56.90
2018-01-10T00:32:47.600Z,56.10
2018-01-10T00:35:15.852Z,56.00
2018-01-10T00:37:44.098Z,56.90
2018-01-10T00:40:14.455Z,57.00
2018-01-10T00:42:42.733Z,56.30
2018-01-10T00:45:11.010Z,56.20
2018-01-10T00:47:40.031Z,56.10
2018-01-10T00:50:10.222Z,56.30
2018-01-10T00:52:38.528Z,56.00
2018-01-10T00:55:06.799Z,56.20
2018-01-10T00:57:35.071Z,56.90
2018-01-10T01:00:03.338Z,56.20
2018-01-10T01:02:31.641Z,56.20
2018-01-10T01:04:59.892Z,56.10
2018-01-10T01:07:28.942Z,56.10
2018-01-10T01:09:57.204Z,56.00
2018-01-10T01:12:25.483Z,56.20
2018-01-10T01:14:53.826Z,56.00
2018-01-10T01:17:22.059Z,55.90
2018-01-10T01:19:50.359Z,55.90
2018-01-10T01:22:18.613Z,56.20
2018-01-10T01:24:47.065Z,55.80
2018-01-10T01:27:15.333Z,56.00
2018-01-10T01:29:44.349Z,55.90
2018-01-10T01:32:12.621Z,55.90
2018-01-10T01:34:40.874Z,56.20
2018-01-10T01:37:09.142Z,56.00
2018-01-10T01:39:38.153Z,56.00
2018-01-10T01:42:06.516Z,56.10
2018-01-10T01:44:35.688Z,56.20
2018-01-10T01:47:03.935Z,56.00
2018-01-10T01:49:32.236Z,55.80
2018-01-10T01:52:00.520Z,55.70
2018-01-10T01:54:28.758Z,55.70
2018-01-10T01:56:57.060Z,55.90
2018-01-10T01:59:25.344Z,55.90
2018-01-10T02:01:53.648Z,56.20
2018-01-10T02:04:21.957Z,56.20
2018-01-10T02:06:50.226Z,55.90
2018-01-10T02:09:20.064Z,56.30
2018-01-10T02:11:48.341Z,56.20
2018-01-10T02:14:17.472Z,56.20
2018-01-10T02:16:45.832Z,56.00
2018-01-10T02:19:14.085Z,55.90
2018-01-10T02:21:42.339Z,55.90
2018-01-10T02:24:10.648Z,55.90
2018-01-10T02:26:39.200Z,56.10
2018-01-10T02:29:07.501Z,55.80
2018-01-10T02:31:36.760Z,56.00
2018-01-10T02:34:05.901Z,56.10
2018-01-10T02:36:34.173Z,56.20
2018-01-10T02:39:02.536Z,55.90
2018-01-10T02:41:30.827Z,56.00
2018-01-10T02:43:59.118Z,56.00
2018-01-10T02:46:31.453Z,55.70
2018-01-10T02:48:59.732Z,55.70
2018-01-10T02:51:28.024Z,56.00
2018-01-10T02:53:56.633Z,55.70
2018-01-10T02:56:24.925Z,55.80
2018-01-10T02:58:53.122Z,56.10
2018-01-10T03:01:21.392Z,56.10
2018-01-10T03:03:49.645Z,55.90
2018-01-10T03:06:17.897Z,56.00
2018-01-10T03:08:46.168Z,56.20
2018-01-10T03:11:14.412Z,55.90
2018-01-10T03:13:42.672Z,55.90
2018-01-10T03:16:10.924Z,56.20
2018-01-10T03:18:39.180Z,56.00
2018-01-10T03:21:07.420Z,56.00
2018-01-10T03:23:35.704Z,55.60
2018-01-10T03:26:03.958Z,55.90
2018-01-10T03:28:33.057Z,55.90
2018-01-10T03:31:01.358Z,55.80
2018-01-10T03:33:29.937Z,55.90
2018-01-10T03:35:58.184Z,56.70
2018-01-10T03:38:26.457Z,56.00
2018-01-10T03:40:54.729Z,56.10
2018-01-10T03:43:23.080Z,56.00
2018-01-10T03:45:51.378Z,56.20
2018-01-10T03:48:21.191Z,56.00
2018-01-10T03:50:50.210Z,56.20
2018-01-10T03:53:18.460Z,56.20
2018-01-10T03:55:46.760Z,56.20
2018-01-10T03:58:15.052Z,56.20
2018-01-10T04:00:43.303Z,56.80
2018-01-10T04:03:12.424Z,56.00
2018-01-10T04:05:40.668Z,56.10
2018-01-10T04:08:09.661Z,56.20
2018-01-10T04:10:38.681Z,56.20
2018-01-10T04:13:06.967Z,56.20
2018-01-10T04:15:36.207Z,56.20
2018-01-10T04:18:06.289Z,56.20
2018-01-10T04:20:34.571Z,56.20
2018-01-10T04:23:02.978Z,56.40
2018-01-10T04:25:31.198Z,56.20
2018-01-10T04:27:59.445Z,56.20
2018-01-10T04:30:28.506Z,56.20
2018-01-10T04:32:56.808Z,56.50
2018-01-10T04:35:25.073Z,56.00
2018-01-10T04:37:53.349Z,55.90
2018-01-10T04:40:23.485Z,55.90
2018-01-10T04:42:52.502Z,56.20
2018-01-10T04:45:20.772Z,55.90
2018-01-10T04:47:49.052Z,55.70
2018-01-10T04:50:17.312Z,55.90
2018-01-10T04:52:46.352Z,56.00
2018-01-10T04:55:15.536Z,55.70
2018-01-10T04:57:44.052Z,55.80
2018-01-10T05:00:12.305Z,55.90
2018-01-10T05:02:40.537Z,55.90
2018-01-10T05:05:09.568Z,55.90
2018-01-10T05:07:37.848Z,55.90
2018-01-10T05:10:06.328Z,56.00
2018-01-10T05:12:34.599Z,56.00
2018-01-10T05:15:03.746Z,55.80
2018-01-10T05:17:31.989Z,56.00
2018-01-10T05:20:00.333Z,56.10
2018-01-10T05:22:28.720Z,56.20
2018-01-10T05:24:56.952Z,56.70
2018-01-10T05:27:26.208Z,56.30
2018-01-10T05:29:54.630Z,56.40
2018-01-10T05:32:22.889Z,56.20
2018-01-10T05:34:51.386Z,56.20
2018-01-10T05:37:20.587Z,56.20
2018-01-10T05:39:49.944Z,56.10
2018-01-10T05:42:18.320Z,56.40
2018-01-10T05:44:46.580Z,56.60
2018-01-10T05:47:14.941Z,56.80
2018-01-10T05:49:43.964Z,56.90
2018-01-10T05:52:12.238Z,56.90
2018-01-10T05:54:40.503Z,56.70
2018-01-10T05:57:08.819Z,56.60
2018-01-10T05:59:37.048Z,56.70
2018-01-10T06:02:05.300Z,56.70
2018-01-10T06:04:36.411Z,56.30
2018-01-10T06:07:04.665Z,56.30
2018-01-10T06:09:33.740Z,55.90
2018-01-10T06:12:02.133Z,56.20
2018-01-10T06:14:30.380Z,56.10
2018-01-10T06:16:58.640Z,56.20
2018-01-10T06:19:26.992Z,56.40
2018-01-10T06:21:55.556Z,56.10
2018-01-10T06:24:23.851Z,56.00
2018-01-10T06:26:52.160Z,56.20
2018-01-10T06:29:20.426Z,56.80
2018-01-10T06:31:48.684Z,56.40
2018-01-10T06:34:17.644Z,56.10
2018-01-10T06:36:45.919Z,56.30
2018-01-10T06:39:14.169Z,56.10
2018-01-10T06:41:42.423Z,56.60
2018-01-10T06:44:11.468Z,56.30
2018-01-10T06:46:41.280Z,56.60
2018-01-10T06:49:09.580Z,56.40
2018-01-10T06:51:38.545Z,56.20
2018-01-10T06:54:07.573Z,56.10
2018-01-10T06:56:35.835Z,56.00
2018-01-10T06:59:04.913Z,56.30
2018-01-10T07:01:33.140Z,56.20
2018-01-10T07:04:01.421Z,56.30
2018-01-10T07:06:30.432Z,56.30
2018-01-10T07:08:59.444Z,56.40
2018-01-10T07:11:27.731Z,56.20
2018-01-10T07:13:55.996Z,56.10
2018-01-10T07:16:24.381Z,56.20
2018-01-10T07:18:52.644Z,56.40
2018-01-10T07:21:21.653Z,56.20
2018-01-10T07:23:50.152Z,56.20
2018-01-10T07:26:18.563Z,56.20
2018-01-10T07:28:47.512Z,56.20
2018-01-10T07:31:15.799Z,56.10
2018-01-10T07:33:44.056Z,56.10
2018-01-10T07:36:12.311Z,56.30
2018-01-10T07:38:40.773Z,56.40
2018-01-10T07:41:09.192Z,56.40
2018-01-10T07:43:37.488Z,56.30
2018-01-10T07:46:05.749Z,56.60
2018-01-10T07:48:34.011Z,56.30
2018-01-10T07:51:02.269Z,56.80
2018-01-10T07:53:31.299Z,56.70
2018-01-10T07:55:59.736Z,56.30
2018-01-10T07:58:27.979Z,56.70
2018-01-10T08:00:56.224Z,56.70
2018-01-10T08:03:24.505Z,56.70
2018-01-10T08:05:52.760Z,57.00
2018-01-10T08:08:21.767Z,56.90
2018-01-10T08:10:50.048Z,57.30
2018-01-10T08:13:19.020Z,57.10
2018-01-10T08:15:48.186Z,57.20
2018-01-10T08:18:16.609Z,56.40
2018-01-10T08:20:44.877Z,57.00
2018-01-10T08:23:13.115Z,57.10
2018-01-10T08:25:42.216Z,57.30
2018-01-10T08:28:10.628Z,57.00
2018-01-10T08:30:39.704Z,56.70
2018-01-10T08:33:08.136Z,56.40
2018-01-10T08:35:37.227Z,57.10
2018-01-10T08:38:05.488Z,57.20
2018-01-10T08:40:33.770Z,57.20
2018-01-10T08:43:02.044Z,56.70
2018-01-10T08:45:31.136Z,56.80
2018-01-10T08:47:59.485Z,57.00
2018-01-10T08:50:28.492Z,56.70
2018-01-10T08:52:56.756Z,56.90
2018-01-10T08:55:25.044Z,56.80
2018-01-10T08:57:54.153Z,56.90
2018-01-10T09:00:22.479Z,56.70
2018-01-10T09:02:50.788Z,56.60
2018-01-10T09:05:19.048Z,56.80
2018-01-10T09:07:48.086Z,56.50
2018-01-10T09:10:17.276Z,56.50
2018-01-10T09:12:45.562Z,56.50
2018-01-10T09:15:13.848Z,56.50
2018-01-10T09:17:42.979Z,56.10
2018-01-10T09:20:11.203Z,55.90
2018-01-10T09:22:39.489Z,56.10
2018-01-10T09:25:07.735Z,56.20
2018-01-10T09:27:36.007Z,56.50
2018-01-10T09:30:05.182Z,55.80
2018-01-10T09:32:33.436Z,55.50
2018-01-10T09:35:01.735Z,55.70
2018-01-10T09:37:29.963Z,55.70
2018-01-10T09:39:58.212Z,55.80
2018-01-10T09:42:26.536Z,55.50
2018-01-10T09:44:54.792Z,55.40
2018-01-10T09:47:23.052Z,55.30
2018-01-10T09:49:52.268Z,55.00
2018-01-10T09:52:20.511Z,54.80
2018-01-10T09:54:48.792Z,54.70
2018-01-10T09:57:17.072Z,54.60
2018-01-10T09:59:45.376Z,54.60
2018-01-10T10:02:13.648Z,54.20
2018-01-10T10:04:41.944Z,54.10
2018-01-10T10:07:10.384Z,53.90
2018-01-10T10:09:38.613Z,54.00
2018-01-10T10:12:07.776Z,53.60
2018-01-10T10:14:36.078Z,53.50
2018-01-10T10:17:04.345Z,53.20
2018-01-10T10:19:32.649Z,53.10
2018-01-10T10:22:00.905Z,52.90
2018-01-10T10:24:29.203Z,52.90
2018-01-10T10:26:57.439Z,52.90
2018-01-10T10:29:25.758Z,52.90
2018-01-10T10:31:54.804Z,52.80
2018-01-10T10:34:23.144Z,52.90
2018-01-10T10:36:51.448Z,52.90
2018-01-10T10:39:20.560Z,52.70
2018-01-10T10:41:50.248Z,52.50
2018-01-10T10:44:18.550Z,52.80
2018-01-10T10:46:46.785Z,53.00
2018-01-10T10:49:15.042Z,53.00
2018-01-10T10:51:43.318Z,53.20
2018-01-10T10:54:11.564Z,52.90
2018-01-10T10:56:39.844Z,53.10
2018-01-10T10:59:08.101Z,53.20
2018-01-10T11:01:36.421Z,53.20
2018-01-10T11:04:08.352Z,53.20
2018-01-10T11:06:36.606Z,53.10
2018-01-10T11:09:05.721Z,53.00
2018-01-10T11:11:35.002Z,53.10
2018-01-10T11:14:04.124Z,53.10
2018-01-10T11:16:32.381Z,53.10
2018-01-10T11:19:00.910Z,53.00
2018-01-10T11:21:29.935Z,53.00
2018-01-10T11:23:58.200Z,52.90
2018-01-10T11:26:27.278Z,52.60
2018-01-10T11:28:57.276Z,52.50
2018-01-10T11:31:25.528Z,52.50
2018-01-10T11:33:54.875Z,52.40
2018-01-10T11:36:23.141Z,52.40
2018-01-10T11:38:52.116Z,52.20
2018-01-10T11:41:21.309Z,52.30
2018-01-10T11:43:49.581Z,52.20
2018-01-10T11:46:17.823Z,52.10
2018-01-10T11:48:46.335Z,52.10
2018-01-10T11:51:14.625Z,52.00
2018-01-10T11:53:42.894Z,52.00
2018-01-10T11:56:11.199Z,51.80
2018-01-10T11:58:39.456Z,51.70
2018-01-10T12:01:08.553Z,51.70
2018-01-10T12:03:37.576Z,51.50
2018-01-10T12:06:06.622Z,51.60
2018-01-10T12:08:35.657Z,51.20
2018-01-10T12:11:03.882Z,51.10
2018-01-10T12:13:32.125Z,51.30
2018-01-10T12:16:01.201Z,51.40
2018-01-10T12:18:29.444Z,51.40
2018-01-10T12:20:58.582Z,51.30
2018-01-10T12:23:27.642Z,51.70
2018-01-10T12:25:55.903Z,51.10
2018-01-10T12:28:24.665Z,51.30
2018-01-10T12:30:52.985Z,51.20
2018-01-10T12:33:22.001Z,50.90
2018-01-10T12:35:50.312Z,50.60
2018-01-10T12:38:18.509Z,50.60
2018-01-10T12:40:46.796Z,50.60
2018-01-10T12:43:15.228Z,50.70
2018-01-10T12:45:43.482Z,50.30
2018-01-10T12:48:12.677Z,50.10
2018-01-10T12:50:41.685Z,49.30
2018-01-10T12:53:09.932Z,49.50
2018-01-10T12:55:39.021Z,49.80
2018-01-10T12:58:07.251Z,49.70
2018-01-10T13:00:35.516Z,50.10
2018-01-10T13:03:04.570Z,50.20
2018-01-10T13:05:32.838Z,50.20
2018-01-10T13:08:01.101Z,50.20
2018-01-10T13:10:29.424Z,50.00
2018-01-10T13:12:57.814Z,50.00
2018-01-10T13:15:27.610Z,49.80
2018-01-10T13:17:55.856Z,49.80
2018-01-10T13:20:24.263Z,49.60
2018-01-10T13:22:53.088Z,50.00
2018-01-10T13:25:21.402Z,50.00
2018-01-10T13:27:51.320Z,49.60
2018-01-10T13:30:19.672Z,49.20
2018-01-10T13:32:48.102Z,49.20
2018-01-10T13:35:16.536Z,49.30
2018-01-10T13:37:44.942Z,49.10
2018-01-10T13:40:14.162Z,49.10
2018-01-10T13:42:42.399Z,49.20
2018-01-10T13:45:10.667Z,49.40
2018-01-10T13:47:38.908Z,49.40
2018-01-10T13:50:07.963Z,49.40
2018-01-10T13:52:36.253Z,49.10
2018-01-10T13:55:04.676Z,49.20
2018-01-10T13:57:32.962Z,49.40
2018-01-10T14:00:01.340Z,49.10
2018-01-10T14:02:29.551Z,49.10
2018-01-10T14:04:57.833Z,49.30
2018-01-10T14:07:26.097Z,49.20
2018-01-10T14:09:54.361Z,49.10
2018-01-10T14:12:22.636Z,49.30
2018-01-10T14:14:50.946Z,49.30
2018-01-10T14:17:19.261Z,49.20
2018-01-10T14:19:47.539Z,49.00
2018-01-10T14:22:15.893Z,48.70
2018-01-10T14:24:44.121Z,48.50
2018-01-10T14:27:12.392Z,48.40
2018-01-10T14:29:40.664Z,48.20
2018-01-10T14:32:08.954Z,48.20
2018-01-10T14:34:37.263Z,48.30
2018-01-10T14:37:05.535Z,48.00
2018-01-10T14:39:33.802Z,48.10
2018-01-10T14:42:02.070Z,47.90
2018-01-10T14:44:30.400Z,47.90
2018-01-10T14:46:59.208Z,48.10
2018-01-10T14:49:27.470Z,47.90
2018-01-10T14:51:55.763Z,48.00
2018-01-10T14:54:24.018Z,47.90
2018-01-10T14:56:52.264Z,48.20
2018-01-10T14:59:20.539Z,47.80
2018-01-10T15:01:49.652Z,47.90
2018-01-10T15:04:18.696Z,48.30
2018-01-10T15:06:46.990Z,48.50
2018-01-10T15:09:15.224Z,48.40
2018-01-10T15:11:43.658Z,48.50
2018-01-10T15:14:11.896Z,48.40
2018-01-10T15:16:41.053Z,48.50
2018-01-10T15:19:09.315Z,48.60
2018-01-10T15:21:37.583Z,48.90
2018-01-10T15:24:05.828Z,48.90
2018-01-10T15:26:34.102Z,49.10
2018-01-10T15:29:02.373Z,48.80
2018-01-10T15:31:30.623Z,48.90
2018-01-10T15:33:59.884Z,48.90
2018-01-10T15:36:28.469Z,49.00
2018-01-10T15:38:56.697Z,48.70
2018-01-10T15:41:24.946Z,49.20
2018-01-10T15:43:54.116Z,49.10
2018-01-10T15:46:23.330Z,48.80
2018-01-10T15:48:52.346Z,48.90
2018-01-10T15:51:20.994Z,48.70
2018-01-10T15:53:49.221Z,48.80
2018-01-10T15:56:17.635Z,48.70
2018-01-10T15:58:46.028Z,48.80
2018-01-10T16:01:14.307Z,48.80
2018-01-10T16:03:43.409Z,48.90
2018-01-10T16:06:11.689Z,48.80
2018-01-10T16:08:39.961Z,48.90
2018-01-10T16:11:08.208Z,48.90
2018-01-10T16:13:36.472Z,49.00
2018-01-10T16:16:04.802Z,49.00
2018-01-10T16:18:33.101Z,49.30
2018-01-10T16:21:01.541Z,49.10
2018-01-10T16:23:30.019Z,49.20
2018-01-10T16:25:58.257Z,49.10
2018-01-10T16:28:26.555Z,48.90
2018-01-10T16:30:54.812Z,49.30
2018-01-10T16:33:23.126Z,49.00
2018-01-10T16:35:51.351Z,49.10
2018-01-10T16:38:19.628Z,49.20
2018-01-10T16:40:47.876Z,49.10
2018-01-10T16:43:16.926Z,49.20
2018-01-10T16:45:45.204Z,48.90
2018-01-10T16:48:13.460Z,49.20
2018-01-10T16:50:41.751Z,49.20
2018-01-10T16:53:10.002Z,49.00
2018-01-10T16:55:38.260Z,49.10
2018-01-10T16:58:06.572Z,49.10
2018-01-10T17:00:34.868Z,49.10
2018-01-10T17:03:03.132Z,49.00
2018-01-10T17:05:31.436Z,49.30
2018-01-10T17:07:59.669Z,48.90
2018-01-10T17:10:27.953Z,48.90
2018-01-10T17:12:56.365Z,49.20
2018-01-10T17:15:24.638Z,49.20
2018-01-10T17:17:52.976Z,49.10
2018-01-10T17:20:21.402Z,49.10
2018-01-10T17:22:49.685Z,49.10
2018-01-10T17:25:17.980Z,49.20
2018-01-10T17:27:46.484Z,48.90
2018-01-10T17:30:14.741Z,48.90
2018-01-10T17:32:42.980Z,49.10
2018-01-10T17:35:11.268Z,49.20
2018-01-10T17:37:39.543Z,49.00
2018-01-10T17:40:07.801Z,49.10
2018-01-10T17:42:36.112Z,49.00
2018-01-10T17:45:04.362Z,49.10
2018-01-10T17:47:32.625Z,49.00
2018-01-10T17:50:00.934Z,48.90
2018-01-10T17:52:29.215Z,48.90
2018-01-10T17:54:57.504Z,48.90
2018-01-10T17:57:25.769Z,48.90
2018-01-10T17:59:54.059Z,48.80
2018-01-10T18:02:22.347Z,48.90
2018-01-10T18:04:50.586Z,48.90
2018-01-10T18:07:18.883Z,49.10
2018-01-10T18:09:47.137Z,49.50
2018-01-10T18:12:15.405Z,49.60
2018-01-10T18:14:43.684Z,49.40
2018-01-10T18:17:11.965Z,49.80
2018-01-10T18:19:40.236Z,49.70
2018-01-10T18:22:09.297Z,49.80
2018-01-10T18:24:37.589Z,49.80
2018-01-10T18:27:05.892Z,49.90
2018-01-10T18:29:34.165Z,49.70
2018-01-10T18:32:02.435Z,49.90
2018-01-10T18:34:30.915Z,50.20
2018-01-10T18:36:59.181Z,49.90
2018-01-10T18:39:28.492Z,49.90
2018-01-10T18:41:57.209Z,49.90
2018-01-10T18:44:26.321Z,49.70
2018-01-10T18:46:55.217Z,49.80
2018-01-10T18:49:23.567Z,49.90
2018-01-10T18:51:52.596Z,50.00
2018-01-10T18:54:20.907Z,49.90
2018-01-10T18:56:50.147Z,50.60
2018-01-10T18:59:18.396Z,49.80
2018-01-10T19:01:46.684Z,49.90
2018-01-10T19:04:16.568Z,50.10
2018-01-10T19:06:44.830Z,50.00
2018-01-10T19:09:13.122Z,50.20
2018-01-10T19:11:42.293Z,50.10
2018-01-10T19:14:10.545Z,50.00
2018-01-10T19:16:38.866Z,50.00
2018-01-10T19:19:07.124Z,50.00
2018-01-10T19:21:35.384Z,49.80
2018-01-10T19:24:03.673Z,49.70
2018-01-10T19:26:32.845Z,49.80
2018-01-10T19:29:01.140Z,49.90
2018-01-10T19:31:29.413Z,49.90
2018-01-10T19:33:57.668Z,49.80
2018-01-10T19:36:25.952Z,50.00
2018-01-10T19:38:56.034Z,49.70
2018-01-10T19:41:24.335Z,50.00
2018-01-10T19:43:52.791Z,50.30
2018-01-10T19:46:21.041Z,50.50
2018-01-10T19:48:49.327Z,50.30
2018-01-10T19:51:19.346Z,50.00
2018-01-10T19:53:47.661Z,50.00
2018-01-10T19:56:20.731Z,50.40
2018-01-10T19:58:49.040Z,50.50
2018-01-10T20:01:17.525Z,50.60
2018-01-10T20:03:45.906Z,50.00
2018-01-10T20:06:14.226Z,50.40
2018-01-10T20:08:42.479Z,50.50
2018-01-10T20:11:10.745Z,50.40
2018-01-10T20:13:39.055Z,50.80
2018-01-10T20:16:07.333Z,50.80
2018-01-10T20:18:35.606Z,51.00
2018-01-10T20:21:04.081Z,50.50
2018-01-10T20:23:32.355Z,50.80
2018-01-10T20:26:00.612Z,50.80
2018-01-10T20:28:29.280Z,51.00
2018-01-10T20:30:58.469Z,51.10
2018-01-10T20:33:26.725Z,50.80
2018-01-10T20:35:54.994Z,50.90
2018-01-10T20:38:23.267Z,51.40
2018-01-10T20:40:51.519Z,51.50
2018-01-10T20:43:19.810Z,51.10
2018-01-10T20:48:17.893Z,50.80
2018-01-10T20:50:46.187Z,51.00
2018-01-10T20:53:15.298Z,51.30
2018-01-10T20:55:44.317Z,51.00
2018-01-10T20:58:12.617Z,51.30
2018-01-10T21:00:40.930Z,51.20
2018-01-10T21:03:09.200Z,51.70
2018-01-10T21:05:37.490Z,51.30
2018-01-10T21:08:07.546Z,51.30
2018-01-10T21:10:36.724Z,51.40
2018-01-10T21:13:05.057Z,51.30
2018-01-10T21:15:33.324Z,50.90
2018-01-10T21:18:01.565Z,51.20
2018-01-10T21:20:29.832Z,51.40
2018-01-10T21:22:58.100Z,51.30
2018-01-10T21:25:27.171Z,51.10
2018-01-10T21:27:55.458Z,51.20
2018-01-10T21:30:23.964Z,51.20
2018-01-10T21:32:52.273Z,51.00
2018-01-10T21:35:20.554Z,51.00
2018-01-10T21:37:49.651Z,51.20
2018-01-10T21:40:17.882Z,51.00
2018-01-10T21:42:46.929Z,51.20
2018-01-10T21:45:15.215Z,51.00
2018-01-10T21:47:43.576Z,51.30
2018-01-10T21:50:11.852Z,51.70
2018-01-10T21:52:40.125Z,51.40
2018-01-10T21:55:08.387Z,51.30
2018-01-10T21:57:36.649Z,51.00
2018-01-10T22:00:04.935Z,51.40
2018-01-10T22:02:33.180Z,51.40
2018-01-10T22:05:02.233Z,51.60
2018-01-10T22:07:30.510Z,52.40
2018-01-10T22:09:58.769Z,51.70
2018-01-10T22:12:27.013Z,51.80
2018-01-10T22:14:55.333Z,51.50
2018-01-10T22:17:23.648Z,51.50
2018-01-10T22:19:52.678Z,51.60
2018-01-10T22:22:20.931Z,51.60
2018-01-10T22:24:49.587Z,51.70
2018-01-10T22:27:17.807Z,51.90
2018-01-10T22:29:46.171Z,52.10
2018-01-10T22:32:14.405Z,51.90
2018-01-10T22:34:42.669Z,52.00
2018-01-10T22:37:10.960Z,51.90
2018-01-10T22:39:40.215Z,51.80
2018-01-10T22:42:08.758Z,52.20
2018-01-10T22:44:37.004Z,52.00
2018-01-10T22:47:05.315Z,51.80
2018-01-10T22:49:33.588Z,51.50
2018-01-10T22:52:01.832Z,52.30
2018-01-10T22:54:30.124Z,51.70
2018-01-10T22:56:59.885Z,51.90
2018-01-10T22:59:29.147Z,52.10
2018-01-10T23:01:58.333Z,51.90
2018-01-10T23:04:27.745Z,51.80
2018-01-10T23:06:56.028Z,51.80
2018-01-10T23:09:24.281Z,52.00
2018-01-10T23:11:52.524Z,52.20
2018-01-10T23:14:20.784Z,51.70
2018-01-10T23:16:49.032Z,52.40
2018-01-10T23:19:17.302Z,52.00
2018-01-10T23:21:46.385Z,52.00
2018-01-10T23:24:14.714Z,51.90
2018-01-10T23:26:42.961Z,52.20
2018-01-10T23:29:11.974Z,52.60
2018-01-10T23:31:40.995Z,51.90
2018-01-10T23:34:09.233Z,52.20
2018-01-10T23:36:38.278Z,52.40
2018-01-10T23:39:06.684Z,51.80
2018-01-10T23:41:34.952Z,52.40
2018-01-10T23:44:03.204Z,52.00
2018-01-10T23:46:31.508Z,52.30
2018-01-10T23:48:59.790Z,52.80
2018-01-10T23:51:28.041Z,52.70
2018-01-10T23:53:56.323Z,53.20
2018-01-10T23:56:24.561Z,53.20
2018-01-10T23:58:53.033Z,53.00
